sensor_id;sensor_type;location;lat;lon;timestamp;P1;durP1;ratioP1;P2;durP2;ratioP2
8656;SDS011;4366;50.764;7.184;2023-02-01T00:01:07;9.63;;;7.47;;
8656;SDS011;4366;50.764;7.184;2023-02-01T00:06:10;10.60;;;7.03;;
8656;SDS011;4366;50.764;7.184;2023-02-01T00:11:12;9.53;;;6.70;;
8656;SDS011;4366;50.764;7.184;2023-02-01T00:16:24;12.07;;;6.87;;
8656;SDS011;4366;50.764;7.184;2023-02-01T00:21:27;10.70;;;6.90;;
8656;SDS011;4366;50.764;7.184;2023-02-01T00:26:36;10.63;;;6.63;;
8656;SDS011;4366;50.764;7.184;2023-02-01T00:31:39;8.80;;;6.40;;
8656;SDS011;4366;50.764;7.184;2023-02-01T00:36:41;10.13;;;6.17;;
8656;SDS011;4366;50.764;7.184;2023-02-01T00:41:44;9.23;;;5.93;;
8656;SDS011;4366;50.764;7.184;2023-02-01T00:46:45;12.43;;;5.93;;
8656;SDS011;4366;50.764;7.184;2023-02-01T00:51:53;8.30;;;6.30;;
8656;SDS011;4366;50.764;7.184;2023-02-01T00:56:55;6.90;;;5.17;;
8656;SDS011;4366;50.764;7.184;2023-02-01T01:01:56;9.47;;;5.00;;
8656;SDS011;4366;50.764;7.184;2023-02-01T01:06:58;11.33;;;5.33;;
8656;SDS011;4366;50.764;7.184;2023-02-01T01:12:00;11.73;;;4.17;;
8656;SDS011;4366;50.764;7.184;2023-02-01T01:17:05;10.10;;;4.20;;
8656;SDS011;4366;50.764;7.184;2023-02-01T01:22:06;11.30;;;3.47;;
8656;SDS011;4366;50.764;7.184;2023-02-01T01:27:08;9.47;;;3.50;;
8656;SDS011;4366;50.764;7.184;2023-02-01T01:32:09;8.37;;;3.70;;
8656;SDS011;4366;50.764;7.184;2023-02-01T01:37:11;8.00;;;3.30;;
8656;SDS011;4366;50.764;7.184;2023-02-01T01:42:13;5.80;;;3.60;;
8656;SDS011;4366;50.764;7.184;2023-02-01T01:47:14;8.77;;;4.00;;
8656;SDS011;4366;50.764;7.184;2023-02-01T01:52:17;9.70;;;3.60;;
8656;SDS011;4366;50.764;7.184;2023-02-01T01:57:22;5.33;;;3.00;;
8656;SDS011;4366;50.764;7.184;2023-02-01T02:02:35;6.23;;;2.90;;
8656;SDS011;4366;50.764;7.184;2023-02-01T02:07:39;7.67;;;3.33;;
8656;SDS011;4366;50.764;7.184;2023-02-01T02:12:44;6.10;;;2.90;;
8656;SDS011;4366;50.764;7.184;2023-02-01T02:28:42;5.97;;;3.20;;
8656;SDS011;4366;50.764;7.184;2023-02-01T02:39:34;5.60;;;3.83;;
8656;SDS011;4366;50.764;7.184;2023-02-01T02:50:37;6.87;;;3.10;;
8656;SDS011;4366;50.764;7.184;2023-02-01T02:56:03;7.07;;;3.57;;
8656;SDS011;4366;50.764;7.184;2023-02-01T03:01:26;8.57;;;3.33;;
8656;SDS011;4366;50.764;7.184;2023-02-01T03:06:47;11.57;;;4.20;;
8656;SDS011;4366;50.764;7.184;2023-02-01T03:11:50;5.40;;;3.73;;
8656;SDS011;4366;50.764;7.184;2023-02-01T03:17:15;6.90;;;3.67;;
8656;SDS011;4366;50.764;7.184;2023-02-01T03:22:20;9.17;;;4.13;;
8656;SDS011;4366;50.764;7.184;2023-02-01T03:27:35;6.77;;;3.53;;
8656;SDS011;4366;50.764;7.184;2023-02-01T03:32:42;7.53;;;3.87;;
8656;SDS011;4366;50.764;7.184;2023-02-01T03:43:12;10.00;;;3.33;;
8656;SDS011;4366;50.764;7.184;2023-02-01T03:48:16;8.63;;;3.03;;
8656;SDS011;4366;50.764;7.184;2023-02-01T03:53:19;7.27;;;3.20;;
8656;SDS011;4366;50.764;7.184;2023-02-01T03:58:23;12.03;;;3.57;;
8656;SDS011;4366;50.764;7.184;2023-02-01T04:03:25;5.50;;;3.10;;
8656;SDS011;4366;50.764;7.184;2023-02-01T04:08:27;9.77;;;3.73;;
8656;SDS011;4366;50.764;7.184;2023-02-01T04:13:29;8.50;;;3.60;;
8656;SDS011;4366;50.764;7.184;2023-02-01T04:18:31;6.80;;;3.60;;
8656;SDS011;4366;50.764;7.184;2023-02-01T04:23:32;8.20;;;3.80;;
8656;SDS011;4366;50.764;7.184;2023-02-01T04:28:34;8.13;;;3.63;;
8656;SDS011;4366;50.764;7.184;2023-02-01T04:33:35;7.87;;;3.50;;
8656;SDS011;4366;50.764;7.184;2023-02-01T04:38:37;8.17;;;4.00;;
8656;SDS011;4366;50.764;7.184;2023-02-01T04:43:38;8.57;;;3.37;;
8656;SDS011;4366;50.764;7.184;2023-02-01T04:48:40;8.60;;;4.20;;
8656;SDS011;4366;50.764;7.184;2023-02-01T04:53:42;6.90;;;3.77;;
8656;SDS011;4366;50.764;7.184;2023-02-01T04:58:44;8.30;;;3.47;;
8656;SDS011;4366;50.764;7.184;2023-02-01T05:03:45;8.70;;;3.87;;
8656;SDS011;4366;50.764;7.184;2023-02-01T05:08:47;4.30;;;3.30;;
8656;SDS011;4366;50.764;7.184;2023-02-01T05:13:48;11.87;;;3.63;;
8656;SDS011;4366;50.764;7.184;2023-02-01T05:18:50;8.97;;;4.37;;
8656;SDS011;4366;50.764;7.184;2023-02-01T05:23:52;7.13;;;3.73;;
8656;SDS011;4366;50.764;7.184;2023-02-01T05:29:14;10.73;;;3.43;;
8656;SDS011;4366;50.764;7.184;2023-02-01T05:34:16;12.27;;;3.93;;
8656;SDS011;4366;50.764;7.184;2023-02-01T05:39:18;8.80;;;3.50;;
8656;SDS011;4366;50.764;7.184;2023-02-01T05:44:21;13.03;;;3.50;;
8656;SDS011;4366;50.764;7.184;2023-02-01T05:49:22;7.20;;;3.40;;
8656;SDS011;4366;50.764;7.184;2023-02-01T05:54:24;9.87;;;3.40;;
8656;SDS011;4366;50.764;7.184;2023-02-01T05:59:26;9.43;;;3.20;;
8656;SDS011;4366;50.764;7.184;2023-02-01T06:04:27;7.00;;;3.03;;
8656;SDS011;4366;50.764;7.184;2023-02-01T06:09:29;8.82;;;3.50;;
8656;SDS011;4366;50.764;7.184;2023-02-01T06:14:31;5.83;;;3.23;;
8656;SDS011;4366;50.764;7.184;2023-02-01T06:19:32;10.20;;;3.60;;
8656;SDS011;4366;50.764;7.184;2023-02-01T06:24:34;6.30;;;2.70;;
8656;SDS011;4366;50.764;7.184;2023-02-01T06:29:36;5.80;;;3.50;;
8656;SDS011;4366;50.764;7.184;2023-02-01T06:34:37;9.67;;;2.97;;
8656;SDS011;4366;50.764;7.184;2023-02-01T06:39:40;6.37;;;2.90;;
8656;SDS011;4366;50.764;7.184;2023-02-01T06:44:43;6.20;;;2.83;;
8656;SDS011;4366;50.764;7.184;2023-02-01T06:49:45;11.87;;;2.77;;
8656;SDS011;4366;50.764;7.184;2023-02-01T06:54:46;12.17;;;2.93;;
8656;SDS011;4366;50.764;7.184;2023-02-01T06:59:48;10.23;;;2.93;;
8656;SDS011;4366;50.764;7.184;2023-02-01T07:04:51;10.63;;;2.97;;
8656;SDS011;4366;50.764;7.184;2023-02-01T07:09:52;8.47;;;3.40;;
8656;SDS011;4366;50.764;7.184;2023-02-01T07:14:54;7.50;;;2.63;;
8656;SDS011;4366;50.764;7.184;2023-02-01T07:19:56;9.90;;;3.30;;
8656;SDS011;4366;50.764;7.184;2023-02-01T07:24:58;7.23;;;2.57;;
8656;SDS011;4366;50.764;7.184;2023-02-01T07:29:59;9.27;;;3.33;;
8656;SDS011;4366;50.764;7.184;2023-02-01T07:35:03;7.20;;;3.20;;
8656;SDS011;4366;50.764;7.184;2023-02-01T07:40:05;5.67;;;3.50;;
8656;SDS011;4366;50.764;7.184;2023-02-01T07:45:08;7.43;;;3.07;;
8656;SDS011;4366;50.764;7.184;2023-02-01T07:50:21;6.83;;;3.43;;
8656;SDS011;4366;50.764;7.184;2023-02-01T07:55:23;7.37;;;2.90;;
8656;SDS011;4366;50.764;7.184;2023-02-01T08:00:26;6.33;;;3.10;;
8656;SDS011;4366;50.764;7.184;2023-02-01T08:05:47;10.03;;;4.17;;
8656;SDS011;4366;50.764;7.184;2023-02-01T08:10:48;4.17;;;2.70;;
8656;SDS011;4366;50.764;7.184;2023-02-01T08:15:52;10.53;;;3.20;;
8656;SDS011;4366;50.764;7.184;2023-02-01T08:20:53;6.53;;;2.93;;
8656;SDS011;4366;50.764;7.184;2023-02-01T08:26:03;6.33;;;3.10;;
8656;SDS011;4366;50.764;7.184;2023-02-01T08:31:26;10.67;;;4.03;;
8656;SDS011;4366;50.764;7.184;2023-02-01T08:36:29;8.60;;;3.10;;
8656;SDS011;4366;50.764;7.184;2023-02-01T08:41:32;9.13;;;2.80;;
8656;SDS011;4366;50.764;7.184;2023-02-01T08:46:33;9.27;;;3.13;;
8656;SDS011;4366;50.764;7.184;2023-02-01T08:51:35;9.80;;;2.93;;
8656;SDS011;4366;50.764;7.184;2023-02-01T08:56:36;8.80;;;2.83;;
8656;SDS011;4366;50.764;7.184;2023-02-01T09:01:38;10.17;;;3.27;;
8656;SDS011;4366;50.764;7.184;2023-02-01T09:06:40;8.90;;;3.13;;
8656;SDS011;4366;50.764;7.184;2023-02-01T09:11:42;11.23;;;2.97;;
8656;SDS011;4366;50.764;7.184;2023-02-01T09:16:44;8.20;;;2.87;;
8656;SDS011;4366;50.764;7.184;2023-02-01T09:21:46;6.90;;;2.70;;
8656;SDS011;4366;50.764;7.184;2023-02-01T09:26:47;8.77;;;3.33;;
8656;SDS011;4366;50.764;7.184;2023-02-01T09:31:50;7.90;;;3.10;;
8656;SDS011;4366;50.764;7.184;2023-02-01T09:37:03;7.97;;;2.97;;
8656;SDS011;4366;50.764;7.184;2023-02-01T09:47:25;6.03;;;2.63;;
8656;SDS011;4366;50.764;7.184;2023-02-01T09:58:00;6.67;;;2.63;;
8656;SDS011;4366;50.764;7.184;2023-02-01T10:03:04;5.17;;;2.77;;
8656;SDS011;4366;50.764;7.184;2023-02-01T10:08:11;6.40;;;2.57;;
8656;SDS011;4366;50.764;7.184;2023-02-01T10:28:44;8.47;;;3.03;;
8656;SDS011;4366;50.764;7.184;2023-02-01T10:33:57;8.93;;;3.17;;
8656;SDS011;4366;50.764;7.184;2023-02-01T10:39:04;8.03;;;3.00;;
8656;SDS011;4366;50.764;7.184;2023-02-01T10:44:15;4.27;;;2.40;;
8656;SDS011;4366;50.764;7.184;2023-02-01T10:49:24;7.63;;;2.70;;
8656;SDS011;4366;50.764;7.184;2023-02-01T10:54:32;7.07;;;2.57;;
8656;SDS011;4366;50.764;7.184;2023-02-01T10:59:35;5.50;;;2.63;;
8656;SDS011;4366;50.764;7.184;2023-02-01T11:04:37;8.77;;;2.73;;
8656;SDS011;4366;50.764;7.184;2023-02-01T11:09:40;5.90;;;2.40;;
8656;SDS011;4366;50.764;7.184;2023-02-01T11:14:42;6.13;;;2.30;;
8656;SDS011;4366;50.764;7.184;2023-02-01T11:19:44;5.83;;;2.40;;
8656;SDS011;4366;50.764;7.184;2023-02-01T11:24:47;6.37;;;2.20;;
8656;SDS011;4366;50.764;7.184;2023-02-01T11:29:50;5.20;;;1.93;;
8656;SDS011;4366;50.764;7.184;2023-02-01T11:34:54;7.47;;;2.20;;
8656;SDS011;4366;50.764;7.184;2023-02-01T11:40:00;7.70;;;2.53;;
8656;SDS011;4366;50.764;7.184;2023-02-01T11:45:19;5.43;;;2.63;;
8656;SDS011;4366;50.764;7.184;2023-02-01T11:55:56;3.87;;;2.00;;
8656;SDS011;4366;50.764;7.184;2023-02-01T12:01:08;9.83;;;2.70;;
8656;SDS011;4366;50.764;7.184;2023-02-01T12:27:47;6.90;;;2.40;;
8656;SDS011;4366;50.764;7.184;2023-02-01T12:48:31;7.70;;;2.73;;
8656;SDS011;4366;50.764;7.184;2023-02-01T12:58:53;6.10;;;2.20;;
8656;SDS011;4366;50.764;7.184;2023-02-01T13:09:26;5.40;;;2.27;;
8656;SDS011;4366;50.764;7.184;2023-02-01T13:14:54;5.80;;;2.60;;
8656;SDS011;4366;50.764;7.184;2023-02-01T13:20:06;6.13;;;2.50;;
8656;SDS011;4366;50.764;7.184;2023-02-01T13:25:12;5.20;;;2.40;;
8656;SDS011;4366;50.764;7.184;2023-02-01T13:30:20;6.33;;;2.00;;
8656;SDS011;4366;50.764;7.184;2023-02-01T13:46:29;10.00;;;2.23;;
8656;SDS011;4366;50.764;7.184;2023-02-01T13:56:47;6.13;;;2.23;;
8656;SDS011;4366;50.764;7.184;2023-02-01T14:01:48;4.70;;;1.90;;
8656;SDS011;4366;50.764;7.184;2023-02-01T14:06:50;7.87;;;2.20;;
8656;SDS011;4366;50.764;7.184;2023-02-01T14:11:53;6.90;;;2.37;;
8656;SDS011;4366;50.764;7.184;2023-02-01T14:27:29;7.27;;;3.10;;
8656;SDS011;4366;50.764;7.184;2023-02-01T14:37:39;3.57;;;2.30;;
8656;SDS011;4366;50.764;7.184;2023-02-01T14:47:42;4.73;;;2.80;;
8656;SDS011;4366;50.764;7.184;2023-02-01T15:14:36;5.43;;;2.10;;
8656;SDS011;4366;50.764;7.184;2023-02-01T15:19:39;11.47;;;3.97;;
8656;SDS011;4366;50.764;7.184;2023-02-01T15:24:55;4.93;;;2.57;;
8656;SDS011;4366;50.764;7.184;2023-02-01T15:30:12;5.67;;;2.13;;
8656;SDS011;4366;50.764;7.184;2023-02-01T15:40:52;4.10;;;2.03;;
8656;SDS011;4366;50.764;7.184;2023-02-01T15:46:06;3.70;;;2.00;;
8656;SDS011;4366;50.764;7.184;2023-02-01T15:51:44;6.33;;;2.33;;
8656;SDS011;4366;50.764;7.184;2023-02-01T15:56:40;4.33;;;2.03;;
8656;SDS011;4366;50.764;7.184;2023-02-01T16:01:45;4.53;;;2.63;;
8656;SDS011;4366;50.764;7.184;2023-02-01T16:06:48;4.37;;;2.00;;
8656;SDS011;4366;50.764;7.184;2023-02-01T16:11:56;5.20;;;2.07;;
8656;SDS011;4366;50.764;7.184;2023-02-01T16:17:00;6.13;;;2.30;;
8656;SDS011;4366;50.764;7.184;2023-02-01T16:22:02;4.60;;;2.47;;
8656;SDS011;4366;50.764;7.184;2023-02-01T16:27:03;5.67;;;2.30;;
8656;SDS011;4366;50.764;7.184;2023-02-01T16:32:15;6.30;;;2.33;;
8656;SDS011;4366;50.764;7.184;2023-02-01T16:37:19;3.33;;;2.20;;
8656;SDS011;4366;50.764;7.184;2023-02-01T16:42:22;7.60;;;2.90;;
8656;SDS011;4366;50.764;7.184;2023-02-01T16:47:24;4.03;;;2.00;;
8656;SDS011;4366;50.764;7.184;2023-02-01T16:52:26;6.70;;;2.20;;
8656;SDS011;4366;50.764;7.184;2023-02-01T16:57:28;3.37;;;3.00;;
8656;SDS011;4366;50.764;7.184;2023-02-01T17:02:30;4.27;;;2.40;;
8656;SDS011;4366;50.764;7.184;2023-02-01T17:07:32;5.73;;;2.77;;
8656;SDS011;4366;50.764;7.184;2023-02-01T17:12:33;6.93;;;2.50;;
8656;SDS011;4366;50.764;7.184;2023-02-01T17:17:36;7.07;;;2.57;;
8656;SDS011;4366;50.764;7.184;2023-02-01T17:22:39;9.60;;;2.70;;
8656;SDS011;4366;50.764;7.184;2023-02-01T17:27:41;2.57;;;2.33;;
8656;SDS011;4366;50.764;7.184;2023-02-01T17:32:43;4.27;;;2.57;;
8656;SDS011;4366;50.764;7.184;2023-02-01T17:37:46;7.30;;;3.10;;
8656;SDS011;4366;50.764;7.184;2023-02-01T17:42:48;6.57;;;2.77;;
8656;SDS011;4366;50.764;7.184;2023-02-01T17:47:51;4.50;;;2.70;;
8656;SDS011;4366;50.764;7.184;2023-02-01T17:52:53;11.10;;;4.27;;
8656;SDS011;4366;50.764;7.184;2023-02-01T17:57:54;4.80;;;2.67;;
8656;SDS011;4366;50.764;7.184;2023-02-01T18:02:57;6.43;;;3.20;;
8656;SDS011;4366;50.764;7.184;2023-02-01T18:08:01;3.37;;;2.67;;
8656;SDS011;4366;50.764;7.184;2023-02-01T18:13:02;3.87;;;2.80;;
8656;SDS011;4366;50.764;7.184;2023-02-01T18:18:05;8.53;;;3.10;;
8656;SDS011;4366;50.764;7.184;2023-02-01T18:23:09;6.93;;;3.20;;
8656;SDS011;4366;50.764;7.184;2023-02-01T18:28:14;7.27;;;2.87;;
8656;SDS011;4366;50.764;7.184;2023-02-01T18:33:17;8.67;;;3.17;;
8656;SDS011;4366;50.764;7.184;2023-02-01T18:38:21;7.17;;;2.87;;
8656;SDS011;4366;50.764;7.184;2023-02-01T18:43:22;9.70;;;3.37;;
8656;SDS011;4366;50.764;7.184;2023-02-01T18:48:24;8.40;;;2.80;;
8656;SDS011;4366;50.764;7.184;2023-02-01T18:53:26;7.37;;;3.33;;
8656;SDS011;4366;50.764;7.184;2023-02-01T18:58:28;7.03;;;3.10;;
8656;SDS011;4366;50.764;7.184;2023-02-01T19:03:32;6.27;;;3.13;;
8656;SDS011;4366;50.764;7.184;2023-02-01T19:08:43;8.10;;;3.80;;
8656;SDS011;4366;50.764;7.184;2023-02-01T19:13:48;6.23;;;3.23;;
8656;SDS011;4366;50.764;7.184;2023-02-01T19:18:51;6.83;;;3.33;;
8656;SDS011;4366;50.764;7.184;2023-02-01T19:23:52;11.00;;;4.10;;
8656;SDS011;4366;50.764;7.184;2023-02-01T19:28:56;11.23;;;3.77;;
8656;SDS011;4366;50.764;7.184;2023-02-01T19:33:59;7.53;;;3.63;;
8656;SDS011;4366;50.764;7.184;2023-02-01T19:39:01;6.70;;;2.80;;
8656;SDS011;4366;50.764;7.184;2023-02-01T19:44:02;5.20;;;3.10;;
8656;SDS011;4366;50.764;7.184;2023-02-01T19:49:06;7.03;;;2.87;;
8656;SDS011;4366;50.764;7.184;2023-02-01T19:54:12;9.13;;;4.00;;
8656;SDS011;4366;50.764;7.184;2023-02-01T19:59:14;6.07;;;3.00;;
8656;SDS011;4366;50.764;7.184;2023-02-01T20:04:16;10.47;;;3.10;;
8656;SDS011;4366;50.764;7.184;2023-02-01T20:09:18;6.77;;;2.80;;
8656;SDS011;4366;50.764;7.184;2023-02-01T20:14:21;10.93;;;3.30;;
8656;SDS011;4366;50.764;7.184;2023-02-01T20:19:25;10.73;;;3.03;;
8656;SDS011;4366;50.764;7.184;2023-02-01T20:24:28;5.00;;;3.27;;
8656;SDS011;4366;50.764;7.184;2023-02-01T20:29:30;7.67;;;3.67;;
8656;SDS011;4366;50.764;7.184;2023-02-01T20:34:32;9.63;;;2.80;;
8656;SDS011;4366;50.764;7.184;2023-02-01T20:39:34;9.07;;;2.70;;
8656;SDS011;4366;50.764;7.184;2023-02-01T20:44:35;6.77;;;2.97;;
8656;SDS011;4366;50.764;7.184;2023-02-01T20:49:37;9.40;;;3.30;;
8656;SDS011;4366;50.764;7.184;2023-02-01T20:54:40;7.10;;;2.70;;
8656;SDS011;4366;50.764;7.184;2023-02-01T20:59:42;6.57;;;3.20;;
8656;SDS011;4366;50.764;7.184;2023-02-01T21:04:44;6.77;;;3.30;;
8656;SDS011;4366;50.764;7.184;2023-02-01T21:09:46;7.67;;;2.97;;
8656;SDS011;4366;50.764;7.184;2023-02-01T21:14:47;7.57;;;3.10;;
8656;SDS011;4366;50.764;7.184;2023-02-01T21:19:49;6.03;;;3.43;;
8656;SDS011;4366;50.764;7.184;2023-02-01T21:24:51;8.23;;;2.87;;
8656;SDS011;4366;50.764;7.184;2023-02-01T21:29:52;5.23;;;2.60;;
8656;SDS011;4366;50.764;7.184;2023-02-01T21:34:54;8.83;;;2.80;;
8656;SDS011;4366;50.764;7.184;2023-02-01T21:39:56;7.10;;;3.03;;
8656;SDS011;4366;50.764;7.184;2023-02-01T21:44:57;4.93;;;2.77;;
8656;SDS011;4366;50.764;7.184;2023-02-01T21:50:01;7.13;;;3.33;;
8656;SDS011;4366;50.764;7.184;2023-02-01T21:55:03;7.60;;;3.10;;
8656;SDS011;4366;50.764;7.184;2023-02-01T22:00:07;9.33;;;3.30;;
8656;SDS011;4366;50.764;7.184;2023-02-01T22:05:09;15.30;;;3.60;;
8656;SDS011;4366;50.764;7.184;2023-02-01T22:10:12;5.93;;;3.47;;
8656;SDS011;4366;50.764;7.184;2023-02-01T22:15:14;6.90;;;3.17;;
8656;SDS011;4366;50.764;7.184;2023-02-01T22:20:16;7.47;;;3.30;;
8656;SDS011;4366;50.764;7.184;2023-02-01T22:25:18;6.37;;;3.23;;
8656;SDS011;4366;50.764;7.184;2023-02-01T22:30:19;8.07;;;3.43;;
8656;SDS011;4366;50.764;7.184;2023-02-01T22:35:21;10.27;;;3.80;;
8656;SDS011;4366;50.764;7.184;2023-02-01T22:40:23;8.47;;;3.53;;
8656;SDS011;4366;50.764;7.184;2023-02-01T22:45:25;11.50;;;3.57;;
8656;SDS011;4366;50.764;7.184;2023-02-01T22:50:26;10.80;;;3.40;;
8656;SDS011;4366;50.764;7.184;2023-02-01T22:55:30;8.33;;;3.77;;
8656;SDS011;4366;50.764;7.184;2023-02-01T23:00:31;7.63;;;3.77;;
8656;SDS011;4366;50.764;7.184;2023-02-01T23:05:37;11.33;;;4.10;;
8656;SDS011;4366;50.764;7.184;2023-02-01T23:10:40;10.00;;;3.70;;
8656;SDS011;4366;50.764;7.184;2023-02-01T23:15:44;12.63;;;3.87;;
8656;SDS011;4366;50.764;7.184;2023-02-01T23:20:45;8.10;;;3.63;;
8656;SDS011;4366;50.764;7.184;2023-02-01T23:25:50;9.97;;;3.73;;
8656;SDS011;4366;50.764;7.184;2023-02-01T23:30:52;10.00;;;3.93;;
8656;SDS011;4366;50.764;7.184;2023-02-01T23:35:55;8.90;;;3.87;;
8656;SDS011;4366;50.764;7.184;2023-02-01T23:41:03;10.67;;;3.93;;
8656;SDS011;4366;50.764;7.184;2023-02-01T23:46:05;4.33;;;3.10;;
8656;SDS011;4366;50.764;7.184;2023-02-01T23:51:07;11.53;;;3.97;;
8656;SDS011;4366;50.764;7.184;2023-02-01T23:56:14;7.63;;;3.30;;
